KEFD

Ellington Airport

Houston, Texas, USA
TAF KEFD 212000Z 2120/2302 16012G18KT 9999 SCT030 QNH3008INS BECMG 2123/2124 16012KT 9999 BKN030 QNH2994INS BECMG 2214/2215 17012G18KT 9999 OVC025 QNH2986INS TX21/2220Z TN14/2212Z
Issued Valid From Valid To
Jan-21 @ 20:00 UTC
(4 hours ago)
Jan-21 @ 20:00 UTC
(4 hours ago)
Jan-23 @ 02:00 UTC
(-1 days ago)
Expired Click to View Jan-21 @ 20:00 to Jan-21 @ 23:00
TAF KEFD 212000Z 2120/2302 16012G18KT 9999 SCT030 QNH3008INS
Wind Visibility Clouds Readings
160° at 12 knots
 Gusting to 18 knots
Greater than 6 miles
  • Scattered at 3,000' AGL
Altimeter 30.09" Hg
Pressure 1018.92 hPa
Becoming Jan-21 @ 23:00 to Jan-22 @ 14:00
BECMG 2123/2124 16012KT 9999 BKN030 QNH2994INS
Wind Visibility Clouds Readings
160° at 12 knots Greater than 6 miles
  • Broken at 3,000' AGL
Altimeter 29.94" Hg
Pressure 1013.92 hPa
Becoming Jan-22 @ 14:00 to Jan-23 @ 02:00
BECMG 2214/2215 17012G18KT 9999 OVC025 QNH2986INS TX21/2220Z TN14/2212Z
Wind Visibility Clouds Readings
170° at 12 knots
 Gusting to 18 knots
Greater than 6 miles
  • Overcast at 2,500' AGL
Altimeter 29.85" Hg
Pressure 1010.92 hPa
TAF KEFD 212000Z 2120/2302 16012G18KT 9999 SCT030 QNH3008INS BECMG 2123/2124 16012KT 9999 BKN030 QNH2994INS BECMG 2214/2215 17012G18KT 9999 OVC025 QNH2986INS TX21/2220Z TN14/2212Z
Issued Jan-21 @ 20:00 UTC
(4 hours ago)
Valid From Jan-21 @ 20:00 UTC
(4 hours ago)
Valid To Jan-23 @ 02:00 UTC
(-1 days ago)
Jan-21 @ 20:00 - Jan-21 @ 23:00
Wind Visibility
160° at 12 knots
 Gusting to 18 knots
Greater than 6 miles
Clouds
  • Scattered at 3,000' AGL
Becoming Jan-21 @ 23:00 - Jan-22 @ 14:00
Wind Visibility
160° at 12 knots Greater than 6 miles
Clouds
  • Broken at 3,000' AGL
Becoming Jan-22 @ 14:00 - Jan-23 @ 02:00
Wind Visibility
170° at 12 knots
 Gusting to 18 knots
Greater than 6 miles
Clouds
  • Overcast at 2,500' AGL